sensor_id;sensor_type;location;lat;lon;timestamp;pressure;altitude;pressure_sealevel;temperature;humidity
79123;BME280;68526;44.600;26.032;2024-03-17T00:00:07;100961.28;;;5.97;84.47
79123;BME280;68526;44.600;26.032;2024-03-17T00:00:26;100960.75;;;5.95;84.54
79123;BME280;68526;44.600;26.032;2024-03-17T00:00:42;100955.84;;;5.92;84.90
79123;BME280;68526;44.600;26.032;2024-03-17T00:01:00;100953.69;;;5.94;84.86
79123;BME280;68526;44.600;26.032;2024-03-17T00:01:17;100955.31;;;5.95;84.81
79123;BME280;68526;44.600;26.032;2024-03-17T00:01:33;100956.94;;;5.96;84.52
79123;BME280;68526;44.600;26.032;2024-03-17T00:01:49;100957.22;;;5.95;84.73
79123;BME280;68526;44.600;26.032;2024-03-17T00:02:05;100958.03;;;5.95;84.46
79123;BME280;68526;44.600;26.032;2024-03-17T00:02:21;100953.94;;;5.93;85.03
79123;BME280;68526;44.600;26.032;2024-03-17T00:02:39;100950.13;;;5.88;84.99
79123;BME280;68526;44.600;26.032;2024-03-17T00:02:55;100949.88;;;5.95;84.78
79123;BME280;68526;44.600;26.032;2024-03-17T00:03:11;100952.03;;;5.98;84.80
79123;BME280;68526;44.600;26.032;2024-03-17T00:03:27;100953.41;;;5.96;84.83
79123;BME280;68526;44.600;26.032;2024-03-17T00:03:43;100952.31;;;5.97;84.84
79123;BME280;68526;44.600;26.032;2024-03-17T00:03:59;100949.31;;;5.98;84.36
79123;BME280;68526;44.600;26.032;2024-03-17T00:04:15;100954.50;;;5.95;84.76
79123;BME280;68526;44.600;26.032;2024-03-17T00:04:31;100953.13;;;5.97;84.22
79123;BME280;68526;44.600;26.032;2024-03-17T00:04:48;100952.84;;;5.99;84.23
79123;BME280;68526;44.600;26.032;2024-03-17T00:05:05;100956.41;;;5.99;84.41
79123;BME280;68526;44.600;26.032;2024-03-17T00:05:21;100949.31;;;5.98;84.12
79123;BME280;68526;44.600;26.032;2024-03-17T00:05:38;100950.13;;;5.99;84.26
79123;BME280;68526;44.600;26.032;2024-03-17T00:05:58;100942.53;;;5.96;84.21
79123;BME280;68526;44.600;26.032;2024-03-17T00:06:14;100952.03;;;5.98;84.23
79123;BME280;68526;44.600;26.032;2024-03-17T00:06:30;100953.13;;;5.97;84.28
79123;BME280;68526;44.600;26.032;2024-03-17T00:06:46;100951.22;;;5.98;84.45
79123;BME280;68526;44.600;26.032;2024-03-17T00:07:03;100951.22;;;5.98;84.59
79123;BME280;68526;44.600;26.032;2024-03-17T00:07:19;100948.25;;;5.99;84.37
79123;BME280;68526;44.600;26.032;2024-03-17T00:07:35;100943.06;;;5.98;84.28
79123;BME280;68526;44.600;26.032;2024-03-17T00:07:51;100948.50;;;6.03;84.42
79123;BME280;68526;44.600;26.032;2024-03-17T00:08:07;100949.59;;;6.02;84.47
79123;BME280;68526;44.600;26.032;2024-03-17T00:08:23;100943.88;;;6.03;84.12
79123;BME280;68526;44.600;26.032;2024-03-17T00:08:40;100947.69;;;6.02;84.33
79123;BME280;68526;44.600;26.032;2024-03-17T00:08:57;100942.53;;;6.01;84.18
79123;BME280;68526;44.600;26.032;2024-03-17T00:09:13;100944.16;;;6.02;84.64
79123;BME280;68526;44.600;26.032;2024-03-17T00:09:29;100938.72;;;6.02;84.11
79123;BME280;68526;44.600;26.032;2024-03-17T00:09:45;100944.69;;;5.99;83.98
79123;BME280;68526;44.600;26.032;2024-03-17T00:10:02;100947.69;;;6.02;83.79
79123;BME280;68526;44.600;26.032;2024-03-17T00:10:20;100951.50;;;5.96;83.91
79123;BME280;68526;44.600;26.032;2024-03-17T00:10:36;100949.59;;;5.97;83.97
79123;BME280;68526;44.600;26.032;2024-03-17T00:10:52;100949.31;;;5.98;84.04
79123;BME280;68526;44.600;26.032;2024-03-17T00:11:08;100944.44;;;5.95;84.16
79123;BME280;68526;44.600;26.032;2024-03-17T00:11:24;100945.78;;;5.98;84.16
79123;BME280;68526;44.600;26.032;2024-03-17T00:11:41;100940.34;;;5.93;84.61
79123;BME280;68526;44.600;26.032;2024-03-17T00:11:57;100945.78;;;5.93;84.58
79123;BME280;68526;44.600;26.032;2024-03-17T00:12:13;100947.69;;;5.92;84.50
79123;BME280;68526;44.600;26.032;2024-03-17T00:12:30;100941.19;;;5.93;84.64
79123;BME280;68526;44.600;26.032;2024-03-17T00:12:47;100944.97;;;5.92;84.47
79123;BME280;68526;44.600;26.032;2024-03-17T00:13:03;100941.44;;;5.92;84.46
79123;BME280;68526;44.600;26.032;2024-03-17T00:13:19;100944.97;;;5.92;84.63
79123;BME280;68526;44.600;26.032;2024-03-17T00:13:35;100942.81;;;5.94;84.36
79123;BME280;68526;44.600;26.032;2024-03-17T00:13:52;100941.72;;;5.95;84.09
79123;BME280;68526;44.600;26.032;2024-03-17T00:14:08;100938.72;;;5.92;84.08
79123;BME280;68526;44.600;26.032;2024-03-17T00:14:25;100946.06;;;5.96;84.03
79123;BME280;68526;44.600;26.032;2024-03-17T00:14:43;100947.69;;;5.97;84.48
79123;BME280;68526;44.600;26.032;2024-03-17T00:15:00;100930.31;;;5.93;84.24
79123;BME280;68526;44.600;26.032;2024-03-17T00:15:16;100937.91;;;5.96;83.82
79123;BME280;68526;44.600;26.032;2024-03-17T00:15:33;100945.22;;;5.90;84.36
79123;BME280;68526;44.600;26.032;2024-03-17T00:15:50;100942.00;;;5.94;84.19
79123;BME280;68526;44.600;26.032;2024-03-17T00:16:06;100946.06;;;5.96;83.89
79123;BME280;68526;44.600;26.032;2024-03-17T00:16:23;100943.34;;;5.96;83.77
79123;BME280;68526;44.600;26.032;2024-03-17T00:16:39;100946.88;;;5.92;84.24
79123;BME280;68526;44.600;26.032;2024-03-17T00:16:55;100943.06;;;5.93;84.19
79123;BME280;68526;44.600;26.032;2024-03-17T00:17:11;100935.75;;;5.93;84.18
79123;BME280;68526;44.600;26.032;2024-03-17T00:17:27;100938.72;;;5.92;83.88
79123;BME280;68526;44.600;26.032;2024-03-17T00:17:43;100942.00;;;5.94;84.24
79123;BME280;68526;44.600;26.032;2024-03-17T00:17:59;100942.50;;;5.90;83.93
79123;BME280;68526;44.600;26.032;2024-03-17T00:18:16;100939.53;;;5.87;84.09
79123;BME280;68526;44.600;26.032;2024-03-17T00:18:33;100937.06;;;5.90;84.33
79123;BME280;68526;44.600;26.032;2024-03-17T00:18:49;100940.63;;;5.91;84.29
79123;BME280;68526;44.600;26.032;2024-03-17T00:19:05;100934.09;;;5.87;84.28
79123;BME280;68526;44.600;26.032;2024-03-17T00:19:23;100943.88;;;5.88;84.66
79123;BME280;68526;44.600;26.032;2024-03-17T00:19:39;100937.34;;;5.89;84.38
79123;BME280;68526;44.600;26.032;2024-03-17T00:19:55;100936.81;;;5.87;84.45
79123;BME280;68526;44.600;26.032;2024-03-17T00:20:12;100933.53;;;5.90;84.12
79123;BME280;68526;44.600;26.032;2024-03-17T00:20:34;100942.25;;;5.92;84.27
79123;BME280;68526;44.600;26.032;2024-03-17T00:20:50;100941.19;;;5.93;84.08
79123;BME280;68526;44.600;26.032;2024-03-17T00:21:06;100930.31;;;5.93;84.11
79123;BME280;68526;44.600;26.032;2024-03-17T00:21:22;100935.75;;;5.93;84.34
79123;BME280;68526;44.600;26.032;2024-03-17T00:21:41;100935.75;;;5.93;83.76
79123;BME280;68526;44.600;26.032;2024-03-17T00:21:57;100935.19;;;5.91;84.21
79123;BME280;68526;44.600;26.032;2024-03-17T00:22:13;100933.84;;;5.94;84.40
79123;BME280;68526;44.600;26.032;2024-03-17T00:22:29;100936.00;;;5.92;84.07
79123;BME280;68526;44.600;26.032;2024-03-17T00:22:47;100931.09;;;5.88;84.56
79123;BME280;68526;44.600;26.032;2024-03-17T00:23:03;100939.78;;;5.90;83.88
79123;BME280;68526;44.600;26.032;2024-03-17T00:23:21;100934.09;;;5.92;84.03
79123;BME280;68526;44.600;26.032;2024-03-17T00:23:38;100932.75;;;5.95;83.95
79123;BME280;68526;44.600;26.032;2024-03-17T00:23:54;100930.84;;;5.95;84.10
79123;BME280;68526;44.600;26.032;2024-03-17T00:24:10;100929.75;;;5.91;84.21
79123;BME280;68526;44.600;26.032;2024-03-17T00:24:29;100921.56;;;5.81;84.42
79123;BME280;68526;44.600;26.032;2024-03-17T00:24:50;100935.47;;;5.95;84.37
79123;BME280;68526;44.600;26.032;2024-03-17T00:25:07;100934.66;;;5.94;84.38
79123;BME280;68526;44.600;26.032;2024-03-17T00:25:25;100931.66;;;5.96;84.38
79123;BME280;68526;44.600;26.032;2024-03-17T00:25:42;100930.31;;;5.93;84.33
79123;BME280;68526;44.600;26.032;2024-03-17T00:25:58;100928.66;;;5.92;84.36
79123;BME280;68526;44.600;26.032;2024-03-17T00:26:14;100934.91;;;5.93;84.28
79123;BME280;68526;44.600;26.032;2024-03-17T00:26:30;100924.88;;;5.93;84.14
79123;BME280;68526;44.600;26.032;2024-03-17T00:26:47;100931.66;;;5.96;84.37
79123;BME280;68526;44.600;26.032;2024-03-17T00:27:04;100935.44;;;5.89;84.51
79123;BME280;68526;44.600;26.032;2024-03-17T00:27:20;100931.38;;;5.87;84.29
79123;BME280;68526;44.600;26.032;2024-03-17T00:27:38;100929.72;;;5.86;84.77
79123;BME280;68526;44.600;26.032;2024-03-17T00:27:56;100927.56;;;5.83;84.75
79123;BME280;68526;44.600;26.032;2024-03-17T00:28:13;100921.03;;;5.84;84.67
79123;BME280;68526;44.600;26.032;2024-03-17T00:28:29;100927.00;;;5.86;84.44
79123;BME280;68526;44.600;26.032;2024-03-17T00:28:45;100933.53;;;5.90;84.46
79123;BME280;68526;44.600;26.032;2024-03-17T00:29:03;100927.81;;;5.86;84.35
79123;BME280;68526;44.600;26.032;2024-03-17T00:29:19;100925.38;;;5.90;84.24
79123;BME280;68526;44.600;26.032;2024-03-17T00:29:35;100925.38;;;5.90;84.37
79123;BME280;68526;44.600;26.032;2024-03-17T00:29:52;100922.94;;;5.88;84.11
79123;BME280;68526;44.600;26.032;2024-03-17T00:30:08;100928.38;;;5.88;84.61
79123;BME280;68526;44.600;26.032;2024-03-17T00:30:27;100925.94;;;5.87;84.28
79123;BME280;68526;44.600;26.032;2024-03-17T00:30:43;100924.56;;;5.84;84.19
79123;BME280;68526;44.600;26.032;2024-03-17T00:31:02;100920.22;;;5.83;84.61
79123;BME280;68526;44.600;26.032;2024-03-17T00:31:18;100926.19;;;5.85;83.98
79123;BME280;68526;44.600;26.032;2024-03-17T00:31:34;100925.94;;;5.87;84.44
79123;BME280;68526;44.600;26.032;2024-03-17T00:31:50;100921.03;;;5.84;84.65
79123;BME280;68526;44.600;26.032;2024-03-17T00:32:07;100928.09;;;5.85;84.83
79123;BME280;68526;44.600;26.032;2024-03-17T00:32:23;100922.13;;;5.88;84.60
79123;BME280;68526;44.600;26.032;2024-03-17T00:32:39;100929.47;;;5.87;84.36
79123;BME280;68526;44.600;26.032;2024-03-17T00:32:55;100924.28;;;5.86;84.40
79123;BME280;68526;44.600;26.032;2024-03-17T00:33:13;100922.41;;;5.81;84.84
79123;BME280;68526;44.600;26.032;2024-03-17T00:33:30;100922.41;;;5.81;84.78
79123;BME280;68526;44.600;26.032;2024-03-17T00:33:46;100925.94;;;5.82;84.51
79123;BME280;68526;44.600;26.032;2024-03-17T00:34:04;100931.63;;;5.85;84.18
79123;BME280;68526;44.600;26.032;2024-03-17T00:34:20;100927.00;;;5.86;84.55
79123;BME280;68526;44.600;26.032;2024-03-17T00:34:36;100927.00;;;5.86;84.16
79123;BME280;68526;44.600;26.032;2024-03-17T00:34:52;100928.09;;;5.85;84.23
79123;BME280;68526;44.600;26.032;2024-03-17T00:35:09;100928.09;;;5.85;84.68
79123;BME280;68526;44.600;26.032;2024-03-17T00:35:29;100927.28;;;5.84;84.47
79123;BME280;68526;44.600;26.032;2024-03-17T00:35:46;100928.09;;;5.85;84.73
79123;BME280;68526;44.600;26.032;2024-03-17T00:36:02;100931.63;;;5.85;84.45
79123;BME280;68526;44.600;26.032;2024-03-17T00:36:18;100921.84;;;5.84;84.71
79123;BME280;68526;44.600;26.032;2024-03-17T00:36:34;100918.84;;;5.86;84.49
79123;BME280;68526;44.600;26.032;2024-03-17T00:36:50;100918.59;;;5.87;84.57
79123;BME280;68526;44.600;26.032;2024-03-17T00:37:07;100919.13;;;5.89;84.59
79123;BME280;68526;44.600;26.032;2024-03-17T00:37:23;100926.47;;;5.89;84.18
79123;BME280;68526;44.600;26.032;2024-03-17T00:37:40;100921.03;;;5.89;84.68
79123;BME280;68526;44.600;26.032;2024-03-17T00:37:56;100920.50;;;5.92;84.27
79123;BME280;68526;44.600;26.032;2024-03-17T00:38:14;100922.94;;;5.88;84.03
79123;BME280;68526;44.600;26.032;2024-03-17T00:38:30;100923.22;;;5.87;84.18
79123;BME280;68526;44.600;26.032;2024-03-17T00:38:46;100923.22;;;5.87;84.30
79123;BME280;68526;44.600;26.032;2024-03-17T00:39:02;100922.94;;;5.88;84.10
79123;BME280;68526;44.600;26.032;2024-03-17T00:39:19;100918.59;;;5.87;83.81
79123;BME280;68526;44.600;26.032;2024-03-17T00:39:35;100918.31;;;5.89;83.53
79123;BME280;68526;44.600;26.032;2024-03-17T00:39:51;100918.59;;;5.87;83.67
79123;BME280;68526;44.600;26.032;2024-03-17T00:40:08;100919.41;;;5.83;84.01
79123;BME280;68526;44.600;26.032;2024-03-17T00:40:28;100923.47;;;5.85;83.77
79123;BME280;68526;44.600;26.032;2024-03-17T00:40:45;100920.22;;;5.83;83.88
79123;BME280;68526;44.600;26.032;2024-03-17T00:41:03;100922.66;;;5.85;84.36
79123;BME280;68526;44.600;26.032;2024-03-17T00:41:19;100917.78;;;5.82;84.13
79123;BME280;68526;44.600;26.032;2024-03-17T00:41:36;100920.78;;;5.75;84.22
79123;BME280;68526;44.600;26.032;2024-03-17T00:41:52;100918.31;;;5.74;84.16
79123;BME280;68526;44.600;26.032;2024-03-17T00:42:09;100919.44;;;5.73;84.80
79123;BME280;68526;44.600;26.032;2024-03-17T00:42:25;100924.56;;;5.74;84.81
79123;BME280;68526;44.600;26.032;2024-03-17T00:42:41;100920.78;;;5.75;84.66
79123;BME280;68526;44.600;26.032;2024-03-17T00:42:58;100929.19;;;5.74;84.29
79123;BME280;68526;44.600;26.032;2024-03-17T00:43:14;100921.03;;;5.74;84.84
79123;BME280;68526;44.600;26.032;2024-03-17T00:43:30;100920.22;;;5.73;84.73
79123;BME280;68526;44.600;26.032;2024-03-17T00:43:46;100923.75;;;5.69;84.76
79123;BME280;68526;44.600;26.032;2024-03-17T00:44:02;100922.72;;;5.70;84.50
79123;BME280;68526;44.600;26.032;2024-03-17T00:44:18;100919.97;;;5.70;84.35
79123;BME280;68526;44.600;26.032;2024-03-17T00:44:34;100922.13;;;5.73;84.67
79123;BME280;68526;44.600;26.032;2024-03-17T00:44:52;100919.94;;;5.75;83.91
79123;BME280;68526;44.600;26.032;2024-03-17T00:45:08;100918.88;;;5.71;84.25
79123;BME280;68526;44.600;26.032;2024-03-17T00:45:25;100916.44;;;5.69;84.09
79123;BME280;68526;44.600;26.032;2024-03-17T00:45:41;100921.31;;;5.72;83.89
79123;BME280;68526;44.600;26.032;2024-03-17T00:45:57;100924.84;;;5.73;84.26
79123;BME280;68526;44.600;26.032;2024-03-17T00:46:14;100924.59;;;5.69;84.71
79123;BME280;68526;44.600;26.032;2024-03-17T00:46:30;100921.03;;;5.69;84.42
79123;BME280;68526;44.600;26.032;2024-03-17T00:46:46;100919.72;;;5.66;84.48
79123;BME280;68526;44.600;26.032;2024-03-17T00:47:02;100922.72;;;5.70;84.64
79123;BME280;68526;44.600;26.032;2024-03-17T00:47:18;100927.31;;;5.64;84.99
79123;BME280;68526;44.600;26.032;2024-03-17T00:47:34;100925.66;;;5.63;84.46
79123;BME280;68526;44.600;26.032;2024-03-17T00:47:50;100924.34;;;5.66;84.47
79123;BME280;68526;44.600;26.032;2024-03-17T00:48:07;100927.31;;;5.64;84.97
79123;BME280;68526;44.600;26.032;2024-03-17T00:48:25;100913.19;;;5.57;84.51
79123;BME280;68526;44.600;26.032;2024-03-17T00:48:41;100924.03;;;5.62;84.79
79123;BME280;68526;44.600;26.032;2024-03-17T00:48:58;100928.13;;;5.65;84.85
79123;BME280;68526;44.600;26.032;2024-03-17T00:49:15;100925.94;;;5.61;85.08
79123;BME280;68526;44.600;26.032;2024-03-17T00:49:31;100918.59;;;5.62;85.05
79123;BME280;68526;44.600;26.032;2024-03-17T00:49:47;100920.50;;;5.61;84.62
79123;BME280;68526;44.600;26.032;2024-03-17T00:50:06;100922.94;;;5.63;85.03
79123;BME280;68526;44.600;26.032;2024-03-17T00:50:24;100921.06;;;5.63;84.84
79123;BME280;68526;44.600;26.032;2024-03-17T00:50:40;100926.50;;;5.63;84.56
79123;BME280;68526;44.600;26.032;2024-03-17T00:50:56;100911.84;;;5.65;84.34
79123;BME280;68526;44.600;26.032;2024-03-17T00:51:13;100918.59;;;5.62;84.38
79123;BME280;68526;44.600;26.032;2024-03-17T00:51:30;100917.50;;;5.63;84.50
79123;BME280;68526;44.600;26.032;2024-03-17T00:51:46;100923.50;;;5.65;84.58
79123;BME280;68526;44.600;26.032;2024-03-17T00:52:05;100917.25;;;5.65;84.22
79123;BME280;68526;44.600;26.032;2024-03-17T00:52:21;100917.81;;;5.67;84.86
79123;BME280;68526;44.600;26.032;2024-03-17T00:52:37;100917.50;;;5.68;84.73
79123;BME280;68526;44.600;26.032;2024-03-17T00:52:54;100921.03;;;5.69;84.31
79123;BME280;68526;44.600;26.032;2024-03-17T00:53:10;100918.34;;;5.69;84.55
79123;BME280;68526;44.600;26.032;2024-03-17T00:53:28;100918.09;;;5.65;84.89
79123;BME280;68526;44.600;26.032;2024-03-17T00:53:44;100913.72;;;5.69;84.29
79123;BME280;68526;44.600;26.032;2024-03-17T00:54:00;100916.19;;;5.71;84.00
79123;BME280;68526;44.600;26.032;2024-03-17T00:54:16;100914.56;;;5.70;84.69
79123;BME280;68526;44.600;26.032;2024-03-17T00:54:34;100916.97;;;5.71;84.35
79123;BME280;68526;44.600;26.032;2024-03-17T00:54:50;100912.34;;;5.72;84.60
79123;BME280;68526;44.600;26.032;2024-03-17T00:55:07;100912.06;;;5.73;84.42
79123;BME280;68526;44.600;26.032;2024-03-17T00:55:25;100918.59;;;5.72;84.46
79123;BME280;68526;44.600;26.032;2024-03-17T00:55:43;100912.34;;;5.72;84.57
79123;BME280;68526;44.600;26.032;2024-03-17T00:55:59;100918.59;;;5.72;83.90
79123;BME280;68526;44.600;26.032;2024-03-17T00:56:16;100919.13;;;5.74;84.36
79123;BME280;68526;44.600;26.032;2024-03-17T00:56:32;100912.06;;;5.73;84.14
79123;BME280;68526;44.600;26.032;2024-03-17T00:56:48;100912.91;;;5.74;84.33
79123;BME280;68526;44.600;26.032;2024-03-17T00:57:04;100915.59;;;5.74;84.55
79123;BME280;68526;44.600;26.032;2024-03-17T00:57:20;100914.78;;;5.73;84.54
79123;BME280;68526;44.600;26.032;2024-03-17T00:57:38;100917.50;;;5.73;84.56
79123;BME280;68526;44.600;26.032;2024-03-17T00:57:54;100910.97;;;5.74;84.41
79123;BME280;68526;44.600;26.032;2024-03-17T00:58:10;100914.50;;;5.75;84.41
79123;BME280;68526;44.600;26.032;2024-03-17T00:58:26;100895.78;;;5.68;84.08
79123;BME280;68526;44.600;26.032;2024-03-17T00:58:42;100909.91;;;5.75;83.93
79123;BME280;68526;44.600;26.032;2024-03-17T00:59:00;100911.78;;;5.75;84.37
79123;BME280;68526;44.600;26.032;2024-03-17T00:59:16;100912.06;;;5.73;84.47
79123;BME280;68526;44.600;26.032;2024-03-17T00:59:32;100901.50;;;5.56;84.46
79123;BME280;68526;44.600;26.032;2024-03-17T00:59:50;100911.84;;;5.65;84.67
79123;BME280;68526;44.600;26.032;2024-03-17T01:00:07;100905.84;;;5.62;84.75
79123;BME280;68526;44.600;26.032;2024-03-17T01:00:25;100908.31;;;5.64;84.60
79123;BME280;68526;44.600;26.032;2024-03-17T01:00:41;100915.09;;;5.61;84.68
79123;BME280;68526;44.600;26.032;2024-03-17T01:00:58;100912.94;;;5.63;84.87
79123;BME280;68526;44.600;26.032;2024-03-17T01:01:14;100911.84;;;5.65;84.83
79123;BME280;68526;44.600;26.032;2024-03-17T01:01:30;100909.38;;;5.63;84.73
79123;BME280;68526;44.600;26.032;2024-03-17T01:01:46;100911.84;;;5.65;84.62
79123;BME280;68526;44.600;26.032;2024-03-17T01:02:02;100913.19;;;5.62;84.68
79123;BME280;68526;44.600;26.032;2024-03-17T01:02:18;100913.19;;;5.62;84.87
79123;BME280;68526;44.600;26.032;2024-03-17T01:02:34;100911.56;;;5.61;85.14
79123;BME280;68526;44.600;26.032;2024-03-17T01:02:50;100909.13;;;5.59;85.20
79123;BME280;68526;44.600;26.032;2024-03-17T01:03:07;100909.66;;;5.61;85.22
79123;BME280;68526;44.600;26.032;2024-03-17T01:03:24;100912.09;;;5.58;85.21
79123;BME280;68526;44.600;26.032;2024-03-17T01:03:40;100911.56;;;5.61;85.20
79123;BME280;68526;44.600;26.032;2024-03-17T01:03:56;100909.66;;;5.56;84.94
79123;BME280;68526;44.600;26.032;2024-03-17T01:04:13;100914.03;;;5.57;85.03
79123;BME280;68526;44.600;26.032;2024-03-17T01:04:29;100910.72;;;5.60;84.82
79123;BME280;68526;44.600;26.032;2024-03-17T01:04:45;100910.22;;;5.58;84.60
79123;BME280;68526;44.600;26.032;2024-03-17T01:05:01;100907.75;;;5.57;84.89
79123;BME280;68526;44.600;26.032;2024-03-17T01:05:21;100915.91;;;5.52;84.69
79123;BME280;68526;44.600;26.032;2024-03-17T01:05:38;100906.69;;;5.53;85.26
79123;BME280;68526;44.600;26.032;2024-03-17T01:05:57;100909.63;;;5.51;85.25
79123;BME280;68526;44.600;26.032;2024-03-17T01:06:14;100907.22;;;5.55;84.86
79123;BME280;68526;44.600;26.032;2024-03-17T01:06:31;100910.72;;;5.55;85.37
79123;BME280;68526;44.600;26.032;2024-03-17T01:06:48;100908.56;;;5.47;85.10
79123;BME280;68526;44.600;26.032;2024-03-17T01:07:04;100909.66;;;5.41;85.43
79123;BME280;68526;44.600;26.032;2024-03-17T01:07:20;100918.06;;;5.45;85.61
79123;BME280;68526;44.600;26.032;2024-03-17T01:07:36;100909.66;;;5.46;85.32
79123;BME280;68526;44.600;26.032;2024-03-17T01:07:52;100917.53;;;5.48;85.75
79123;BME280;68526;44.600;26.032;2024-03-17T01:08:09;100918.34;;;5.48;85.20
79123;BME280;68526;44.600;26.032;2024-03-17T01:08:25;100907.19;;;5.50;85.75
79123;BME280;68526;44.600;26.032;2024-03-17T01:08:42;100921.06;;;5.53;85.52
79123;BME280;68526;44.600;26.032;2024-03-17T01:08:59;100921.88;;;5.54;85.42
79123;BME280;68526;44.600;26.032;2024-03-17T01:09:15;100923.22;;;5.51;85.56
79123;BME280;68526;44.600;26.032;2024-03-17T01:09:31;100920.25;;;5.53;85.19
79123;BME280;68526;44.600;26.032;2024-03-17T01:09:47;100913.44;;;5.50;85.40
79123;BME280;68526;44.600;26.032;2024-03-17T01:10:04;100905.06;;;5.52;84.87
79123;BME280;68526;44.600;26.032;2024-03-17T01:10:23;100911.56;;;5.56;84.74
79123;BME280;68526;44.600;26.032;2024-03-17T01:10:40;100914.81;;;5.48;85.38
79123;BME280;68526;44.600;26.032;2024-03-17T01:10:58;100903.41;;;5.51;85.06
79123;BME280;68526;44.600;26.032;2024-03-17T01:11:15;100910.19;;;5.48;85.20
79123;BME280;68526;44.600;26.032;2024-03-17T01:11:32;100905.28;;;5.50;85.51
79123;BME280;68526;44.600;26.032;2024-03-17T01:11:48;100906.13;;;5.51;85.37
79123;BME280;68526;44.600;26.032;2024-03-17T01:12:04;100909.41;;;5.53;85.44
79123;BME280;68526;44.600;26.032;2024-03-17T01:12:21;100904.22;;;5.51;85.49
79123;BME280;68526;44.600;26.032;2024-03-17T01:12:37;100918.88;;;5.50;85.17
79123;BME280;68526;44.600;26.032;2024-03-17T01:12:54;100915.06;;;5.51;85.13
79123;BME280;68526;44.600;26.032;2024-03-17T01:13:10;100911.03;;;5.54;84.83
79123;BME280;68526;44.600;26.032;2024-03-17T01:13:26;100908.56;;;5.52;85.52
79123;BME280;68526;44.600;26.032;2024-03-17T01:13:42;100907.78;;;5.52;85.16
79123;BME280;68526;44.600;26.032;2024-03-17T01:13:58;100917.53;;;5.53;85.22
79123;BME280;68526;44.600;26.032;2024-03-17T01:14:14;100907.78;;;5.52;85.33
79123;BME280;68526;44.600;26.032;2024-03-17T01:14:31;100912.66;;;5.55;85.14
79123;BME280;68526;44.600;26.032;2024-03-17T01:14:48;100919.16;;;5.54;85.02
79123;BME280;68526;44.600;26.032;2024-03-17T01:15:05;100907.19;;;5.50;85.28
79123;BME280;68526;44.600;26.032;2024-03-17T01:15:22;100911.28;;;5.52;85.06
79123;BME280;68526;44.600;26.032;2024-03-17T01:15:39;100914.53;;;5.54;85.28
79123;BME280;68526;44.600;26.032;2024-03-17T01:15:55;100908.03;;;5.55;85.47
79123;BME280;68526;44.600;26.032;2024-03-17T01:16:11;100914.28;;;5.56;85.16
79123;BME280;68526;44.600;26.032;2024-03-17T01:16:27;100906.69;;;5.58;85.22
79123;BME280;68526;44.600;26.032;2024-03-17T01:16:44;100911.31;;;5.57;85.26
79123;BME280;68526;44.600;26.032;2024-03-17T01:17:00;100908.03;;;5.55;85.26
79123;BME280;68526;44.600;26.032;2024-03-17T01:17:20;100906.69;;;5.58;85.02
79123;BME280;68526;44.600;26.032;2024-03-17T01:17:36;100909.94;;;5.60;85.06
79123;BME280;68526;44.600;26.032;2024-03-17T01:17:52;100908.56;;;5.62;84.71
79123;BME280;68526;44.600;26.032;2024-03-17T01:18:09;100911.28;;;5.62;84.93
79123;BME280;68526;44.600;26.032;2024-03-17T01:18:25;100915.63;;;5.63;84.90
79123;BME280;68526;44.600;26.032;2024-03-17T01:18:41;100912.94;;;5.63;84.99
79123;BME280;68526;44.600;26.032;2024-03-17T01:18:59;100911.84;;;5.59;85.09
79123;BME280;68526;44.600;26.032;2024-03-17T01:19:15;100917.81;;;5.61;84.55
79123;BME280;68526;44.600;26.032;2024-03-17T01:19:31;100918.59;;;5.62;84.75
79123;BME280;68526;44.600;26.032;2024-03-17T01:19:47;100911.03;;;5.59;85.10
79123;BME280;68526;44.600;26.032;2024-03-17T01:20:04;100906.41;;;5.54;85.19
79123;BME280;68526;44.600;26.032;2024-03-17T01:20:21;100908.81;;;5.56;85.15
79123;BME280;68526;44.600;26.032;2024-03-17T01:20:38;100905.31;;;5.55;85.39
79123;BME280;68526;44.600;26.032;2024-03-17T01:20:54;100911.81;;;5.54;85.58
79123;BME280;68526;44.600;26.032;2024-03-17T01:21:10;100909.66;;;5.56;85.08
79123;BME280;68526;44.600;26.032;2024-03-17T01:21:27;100916.44;;;5.59;85.26
79123;BME280;68526;44.600;26.032;2024-03-17T01:21:43;100908.03;;;5.55;85.33
79123;BME280;68526;44.600;26.032;2024-03-17T01:22:00;100910.22;;;5.58;84.98
79123;BME280;68526;44.600;26.032;2024-03-17T01:22:16;100912.09;;;5.58;84.79
79123;BME280;68526;44.600;26.032;2024-03-17T01:22:32;100910.72;;;5.60;85.18
79123;BME280;68526;44.600;26.032;2024-03-17T01:22:48;100912.94;;;5.58;84.97
79123;BME280;68526;44.600;26.032;2024-03-17T01:23:05;100915.88;;;5.57;85.40
79123;BME280;68526;44.600;26.032;2024-03-17T01:23:21;100910.22;;;5.58;85.40
79123;BME280;68526;44.600;26.032;2024-03-17T01:23:37;100909.94;;;5.60;84.91
79123;BME280;68526;44.600;26.032;2024-03-17T01:23:53;100917.25;;;5.65;85.18
79123;BME280;68526;44.600;26.032;2024-03-17T01:24:09;100909.38;;;5.63;85.32
79123;BME280;68526;44.600;26.032;2024-03-17T01:24:25;100908.56;;;5.62;85.00
79123;BME280;68526;44.600;26.032;2024-03-17T01:24:46;100905.03;;;5.62;84.78
79123;BME280;68526;44.600;26.032;2024-03-17T01:25:04;100906.41;;;5.59;84.90
79123;BME280;68526;44.600;26.032;2024-03-17T01:25:22;100907.22;;;5.65;85.19
79123;BME280;68526;44.600;26.032;2024-03-17T01:25:38;100911.28;;;5.68;85.27
79123;BME280;68526;44.600;26.032;2024-03-17T01:25:54;100909.13;;;5.70;85.09
79123;BME280;68526;44.600;26.032;2024-03-17T01:26:11;100909.94;;;5.70;84.79
79123;BME280;68526;44.600;26.032;2024-03-17T01:26:28;100910.19;;;5.69;84.79
79123;BME280;68526;44.600;26.032;2024-03-17T01:26:44;100910.72;;;5.71;85.03
79123;BME280;68526;44.600;26.032;2024-03-17T01:27:01;100910.19;;;5.69;85.03